createdAt,value
2023-04-17T00:01:43.197Z,100.00
2023-04-17T00:04:11.633Z,100.00
2023-04-17T00:06:39.423Z,100.00
2023-04-17T00:09:06.462Z,100.00
2023-04-17T00:11:33.256Z,100.00
2023-04-17T00:14:00.103Z,100.00
2023-04-17T00:16:27.610Z,100.00
2023-04-17T00:18:55.074Z,100.00
2023-04-17T00:21:22.210Z,100.00
2023-04-17T00:23:49.019Z,100.00
2023-04-17T00:26:16.665Z,100.00
2023-04-17T00:28:43.734Z,100.00
2023-04-17T00:31:10.991Z,100.00
2023-04-17T00:33:38.102Z,100.00
2023-04-17T00:36:05.645Z,100.00
2023-04-17T00:38:32.584Z,100.00
2023-04-17T00:40:59.625Z,100.00
2023-04-17T00:43:26.585Z,100.00
2023-04-17T00:45:54.453Z,100.00
2023-04-17T00:48:24.380Z,100.00
2023-04-17T00:50:51.516Z,100.00
2023-04-17T00:53:18.405Z,100.00
2023-04-17T00:55:45.880Z,100.00
2023-04-17T00:58:12.727Z,100.00
2023-04-17T01:00:39.558Z,100.00
2023-04-17T01:03:06.561Z,100.00
2023-04-17T01:05:35.732Z,100.00
2023-04-17T01:08:02.596Z,100.00
2023-04-17T01:10:32.187Z,100.00
2023-04-17T01:13:07.017Z,100.00
2023-04-17T01:15:34.457Z,100.00
2023-04-17T01:18:01.512Z,100.00
2023-04-17T01:20:31.503Z,100.00
2023-04-17T01:22:58.874Z,100.00
2023-04-17T01:25:26.703Z,100.00
2023-04-17T01:27:53.703Z,100.00
2023-04-17T01:30:21.136Z,100.00
2023-04-17T01:32:48.036Z,100.00
2023-04-17T01:35:15.038Z,100.00
2023-04-17T01:37:41.798Z,100.00
2023-04-17T01:40:10.043Z,100.00
2023-04-17T01:42:36.942Z,100.00
2023-04-17T01:45:04.205Z,100.00
2023-04-17T01:47:31.025Z,100.00
2023-04-17T01:49:57.800Z,100.00
2023-04-17T01:52:24.628Z,100.00
2023-04-17T01:54:51.490Z,100.00
2023-04-17T01:57:18.247Z,100.00
2023-04-17T01:59:45.255Z,100.00
2023-04-17T02:02:12.245Z,100.00
2023-04-17T02:04:39.194Z,100.00
2023-04-17T02:07:06.224Z,100.00
2023-04-17T02:09:33.109Z,100.00
2023-04-17T02:12:00.293Z,100.00
2023-04-17T02:14:27.026Z,100.00
2023-04-17T02:16:54.085Z,100.00
2023-04-17T02:19:21.708Z,100.00
2023-04-17T02:21:48.662Z,100.00
2023-04-17T02:24:15.646Z,100.00
2023-04-17T02:26:42.415Z,100.00
2023-04-17T02:29:09.427Z,100.00
2023-04-17T02:31:36.848Z,100.00
2023-04-17T02:34:03.628Z,100.00
2023-04-17T02:36:30.337Z,100.00
2023-04-17T02:38:57.371Z,100.00
2023-04-17T02:41:24.289Z,100.00
2023-04-17T02:43:51.018Z,100.00
2023-04-17T02:46:17.706Z,100.00
2023-04-17T02:48:44.453Z,100.00
2023-04-17T02:51:11.203Z,100.00
2023-04-17T02:53:37.923Z,100.00
2023-04-17T02:56:05.359Z,100.00
2023-04-17T02:58:32.153Z,100.00
2023-04-17T03:01:03.366Z,100.00
2023-04-17T03:03:35.605Z,100.00
2023-04-17T03:06:02.829Z,100.00
2023-04-17T03:08:33.035Z,100.00
2023-04-17T03:10:59.899Z,100.00
2023-04-17T03:13:26.679Z,100.00
2023-04-17T03:15:53.430Z,100.00
2023-04-17T03:18:20.242Z,100.00
2023-04-17T03:20:46.977Z,100.00
2023-04-17T03:23:13.706Z,100.00
2023-04-17T03:25:40.727Z,100.00
2023-04-17T03:28:07.516Z,100.00
2023-04-17T03:30:34.299Z,100.00
2023-04-17T03:33:01.320Z,100.00
2023-04-17T03:35:28.152Z,100.00
2023-04-17T03:37:54.996Z,100.00
2023-04-17T03:40:21.723Z,100.00
2023-04-17T03:42:48.824Z,100.00
2023-04-17T03:45:17.169Z,100.00
2023-04-17T03:47:43.956Z,100.00
2023-04-17T03:50:11.113Z,100.00
2023-04-17T03:52:37.857Z,100.00
2023-04-17T03:55:05.324Z,100.00
2023-04-17T03:57:32.556Z,100.00
2023-04-17T03:59:59.671Z,100.00
2023-04-17T04:02:26.917Z,100.00
2023-04-17T04:04:54.180Z,100.00
2023-04-17T04:07:21.764Z,100.00
2023-04-17T04:09:48.506Z,100.00
2023-04-17T04:12:15.324Z,100.00
2023-04-17T04:14:42.978Z,100.00
2023-04-17T04:17:09.802Z,100.00
2023-04-17T04:19:36.705Z,100.00
2023-04-17T04:22:06.724Z,100.00
2023-04-17T04:24:34.474Z,100.00
2023-04-17T04:27:05.645Z,100.00
2023-04-17T04:29:33.463Z,100.00
2023-04-17T04:32:01.460Z,100.00
2023-04-17T04:34:30.178Z,100.00
2023-04-17T04:36:57.493Z,100.00
2023-04-17T04:39:24.541Z,100.00
2023-04-17T04:41:52.658Z,100.00
2023-04-17T04:44:20.375Z,100.00
2023-04-17T04:46:47.447Z,100.00
2023-04-17T04:49:19.534Z,100.00
2023-04-17T04:51:46.736Z,100.00
2023-04-17T04:54:13.867Z,100.00
2023-04-17T04:56:40.794Z,100.00
2023-04-17T04:59:07.614Z,100.00
2023-04-17T05:01:34.964Z,100.00
2023-04-17T05:04:02.203Z,100.00
2023-04-17T05:06:30.770Z,100.00
2023-04-17T05:08:57.537Z,100.00
2023-04-17T05:11:24.470Z,100.00
2023-04-17T05:13:51.314Z,100.00
2023-04-17T05:16:18.406Z,100.00
2023-04-17T05:18:46.843Z,100.00
2023-04-17T05:21:13.888Z,100.00
2023-04-17T05:23:40.856Z,100.00
2023-04-17T05:26:07.704Z,100.00
2023-04-17T05:28:34.722Z,100.00
2023-04-17T05:31:01.715Z,100.00
2023-04-17T05:33:28.588Z,100.00
2023-04-17T05:35:56.443Z,100.00
2023-04-17T05:38:23.368Z,100.00
2023-04-17T05:40:50.294Z,100.00
2023-04-17T05:43:17.302Z,100.00
2023-04-17T05:45:45.435Z,100.00
2023-04-17T05:48:12.372Z,100.00
2023-04-17T05:50:39.256Z,100.00
2023-04-17T05:53:06.358Z,100.00
2023-04-17T05:55:33.385Z,100.00
2023-04-17T05:58:02.430Z,100.00
2023-04-17T06:00:35.065Z,100.00
2023-04-17T06:03:03.303Z,100.00
2023-04-17T06:05:30.622Z,100.00
2023-04-17T06:07:57.589Z,100.00
2023-04-17T06:10:24.589Z,100.00
2023-04-17T06:12:51.730Z,100.00
2023-04-17T06:15:18.726Z,100.00
2023-04-17T06:17:45.722Z,100.00
2023-04-17T06:20:13.135Z,100.00
2023-04-17T06:22:42.661Z,100.00
2023-04-17T06:25:09.882Z,100.00
2023-04-17T06:27:37.325Z,100.00
2023-04-17T06:30:05.377Z,100.00
2023-04-17T06:32:32.201Z,100.00
2023-04-17T06:34:59.758Z,100.00
2023-04-17T06:37:27.535Z,100.00
2023-04-17T06:39:54.550Z,100.00
2023-04-17T06:42:21.437Z,100.00
2023-04-17T06:44:48.230Z,100.00
2023-04-17T06:47:15.317Z,100.00
2023-04-17T06:49:42.159Z,100.00
2023-04-17T06:52:09.400Z,100.00
2023-04-17T06:54:36.209Z,100.00
2023-04-17T06:57:07.206Z,100.00
2023-04-17T06:59:34.510Z,100.00
2023-04-17T07:02:03.084Z,100.00
2023-04-17T07:04:33.590Z,100.00
2023-04-17T07:07:00.957Z,100.00
2023-04-17T07:09:27.939Z,100.00
2023-04-17T07:11:54.773Z,100.00
2023-04-17T07:14:23.285Z,100.00
2023-04-17T07:16:50.234Z,100.00
2023-04-17T07:19:17.006Z,100.00
2023-04-17T07:21:44.149Z,100.00
2023-04-17T07:24:11.060Z,100.00
2023-04-17T07:26:38.086Z,100.00
2023-04-17T07:29:05.081Z,100.00
2023-04-17T07:31:32.434Z,100.00
2023-04-17T07:33:59.623Z,100.00
2023-04-17T07:36:29.139Z,100.00
2023-04-17T07:38:56.260Z,100.00
2023-04-17T07:41:23.107Z,100.00
2023-04-17T07:43:49.859Z,100.00
2023-04-17T07:46:16.874Z,100.00
2023-04-17T07:48:43.811Z,100.00
2023-04-17T07:51:10.759Z,100.00
2023-04-17T07:53:38.926Z,100.00
2023-04-17T07:56:07.680Z,99.14
2023-04-17T07:58:36.172Z,98.93
2023-04-17T08:01:06.160Z,99.11
2023-04-17T08:03:33.637Z,96.97
2023-04-17T08:06:00.563Z,97.32
2023-04-17T08:08:27.388Z,97.41
2023-04-17T08:10:54.158Z,96.37
2023-04-17T08:13:21.290Z,98.14
2023-04-17T08:15:52.024Z,97.11
2023-04-17T08:18:19.498Z,95.99
2023-04-17T08:20:46.879Z,95.98
2023-04-17T08:23:13.781Z,95.17
2023-04-17T08:25:41.130Z,96.12
2023-04-17T08:28:08.260Z,94.32
2023-04-17T08:30:35.079Z,95.69
2023-04-17T08:33:02.553Z,95.89
2023-04-17T08:35:29.411Z,95.13
2023-04-17T08:37:59.400Z,95.26
2023-04-17T08:40:26.867Z,96.40
2023-04-17T08:42:54.766Z,94.63
2023-04-17T08:45:24.416Z,94.60
2023-04-17T08:47:51.456Z,93.88
2023-04-17T08:50:20.193Z,95.02
2023-04-17T08:52:48.691Z,93.66
2023-04-17T08:55:20.188Z,92.70
2023-04-17T08:58:04.475Z,92.83
2023-04-17T09:00:36.670Z,93.76
2023-04-17T09:03:05.883Z,93.46
2023-04-17T09:05:37.354Z,91.24
2023-04-17T09:08:21.906Z,91.47
2023-04-17T09:10:50.895Z,91.25
2023-04-17T09:13:22.228Z,89.65
2023-04-17T09:16:10.760Z,89.59
2023-04-17T09:18:39.034Z,90.26
2023-04-17T09:21:07.317Z,90.35
2023-04-17T09:23:55.691Z,91.47
2023-04-17T09:26:27.936Z,92.02
2023-04-17T09:29:02.077Z,89.82
2023-04-17T09:31:30.938Z,90.46
2023-04-17T09:33:58.992Z,90.71
2023-04-17T09:36:27.771Z,88.49
2023-04-17T09:38:54.817Z,88.99
2023-04-17T09:41:33.253Z,87.79
2023-04-17T09:44:02.396Z,88.86
2023-04-17T09:46:38.728Z,90.12
2023-04-17T09:49:31.032Z,89.07
2023-04-17T09:51:58.580Z,90.15
2023-04-17T09:54:26.014Z,86.37
2023-04-17T09:56:56.358Z,87.21
2023-04-17T09:59:26.730Z,82.58
2023-04-17T10:01:54.548Z,76.72
2023-04-17T10:04:21.956Z,77.89
2023-04-17T10:06:49.818Z,75.43
2023-04-17T10:09:16.878Z,72.51
2023-04-17T10:11:45.374Z,70.07
2023-04-17T10:14:17.484Z,67.80
2023-04-17T10:16:44.431Z,66.55
2023-04-17T10:19:34.928Z,63.96
2023-04-17T10:22:41.789Z,63.06
2023-04-17T10:25:19.468Z,60.09
2023-04-17T10:27:48.739Z,60.73
2023-04-17T10:30:16.219Z,59.17
2023-04-17T10:32:47.069Z,62.41
2023-04-17T10:35:37.372Z,63.14
2023-04-17T10:38:06.332Z,62.14
2023-04-17T10:40:35.610Z,62.21
2023-04-17T10:43:14.059Z,62.69
2023-04-17T10:46:09.463Z,61.71
2023-04-17T10:48:38.449Z,60.05
2023-04-17T10:51:44.214Z,56.93
2023-04-17T10:54:11.443Z,59.02
2023-04-17T10:56:49.037Z,60.71
2023-04-17T10:59:17.721Z,59.50
2023-04-17T11:02:05.256Z,58.81
2023-04-17T11:04:34.737Z,59.88
2023-04-17T11:07:02.329Z,57.60
2023-04-17T11:09:29.818Z,61.45
2023-04-17T11:12:00.312Z,62.31
2023-04-17T11:14:27.261Z,60.74
2023-04-17T11:16:54.637Z,59.01
2023-04-17T11:19:23.893Z,58.25
2023-04-17T11:21:55.244Z,58.71
2023-04-17T11:24:30.085Z,60.20
2023-04-17T11:27:00.218Z,62.55
2023-04-17T11:29:28.647Z,59.87
2023-04-17T11:31:57.800Z,59.52
2023-04-17T11:34:29.437Z,62.53
2023-04-17T11:36:58.353Z,61.41
2023-04-17T11:39:30.307Z,58.25
2023-04-17T11:41:57.467Z,58.85
2023-04-17T11:44:27.298Z,59.69
2023-04-17T11:46:56.038Z,58.66
2023-04-17T11:49:33.992Z,60.36
2023-04-17T11:52:02.479Z,57.79
2023-04-17T11:54:31.282Z,55.88
2023-04-17T11:57:02.757Z,52.49
2023-04-17T11:59:33.969Z,53.11
2023-04-17T12:02:02.607Z,54.13
2023-04-17T12:04:31.350Z,54.97
2023-04-17T12:07:00.164Z,53.58
2023-04-17T12:09:31.926Z,54.72
2023-04-17T12:11:59.993Z,55.10
2023-04-17T12:14:26.977Z,53.22
2023-04-17T12:16:54.228Z,52.81
2023-04-17T12:19:21.159Z,52.38
2023-04-17T12:21:48.208Z,54.23
2023-04-17T12:24:16.020Z,54.56
2023-04-17T12:26:49.994Z,55.81
2023-04-17T12:29:17.829Z,53.80
2023-04-17T12:31:46.060Z,53.94
2023-04-17T12:34:15.403Z,53.41
2023-04-17T12:36:42.846Z,53.11
2023-04-17T12:39:09.871Z,54.28
2023-04-17T12:41:36.656Z,53.70
2023-04-17T12:44:03.945Z,52.56
2023-04-17T12:46:31.743Z,53.62
2023-04-17T12:48:59.940Z,52.15
2023-04-17T12:51:31.188Z,50.30
2023-04-17T12:53:59.069Z,50.56
2023-04-17T12:56:26.323Z,51.38
2023-04-17T12:58:53.314Z,52.07
2023-04-17T13:01:20.321Z,52.44
2023-04-17T13:03:48.240Z,52.78
2023-04-17T13:06:17.214Z,53.88
2023-04-17T13:08:44.108Z,53.26
2023-04-17T13:11:11.947Z,52.60
2023-04-17T13:13:38.742Z,52.82
2023-04-17T13:16:06.341Z,52.88
2023-04-17T13:18:33.386Z,51.79
2023-04-17T13:21:01.194Z,52.07
2023-04-17T13:23:28.178Z,53.38
2023-04-17T13:25:55.201Z,52.82
2023-04-17T13:28:22.774Z,52.50
2023-04-17T13:30:49.641Z,51.75
2023-04-17T13:33:17.205Z,53.33
2023-04-17T13:35:44.126Z,52.94
2023-04-17T13:38:11.058Z,52.63
2023-04-17T13:40:38.818Z,52.93
2023-04-17T13:43:10.598Z,54.53
2023-04-17T13:45:38.321Z,53.69
2023-04-17T13:48:05.558Z,54.66
2023-04-17T13:50:32.439Z,56.03
2023-04-17T13:52:59.220Z,55.38
2023-04-17T13:55:26.136Z,55.52
2023-04-17T13:57:54.474Z,56.08
2023-04-17T14:00:22.551Z,56.50
2023-04-17T14:02:49.719Z,56.08
2023-04-17T14:05:16.991Z,55.73
2023-04-17T14:07:44.410Z,54.83
2023-04-17T14:10:11.725Z,55.77
2023-04-17T14:12:38.660Z,58.04
2023-04-17T14:15:07.680Z,56.12
2023-04-17T14:17:38.272Z,56.79
2023-04-17T14:20:06.091Z,56.66
2023-04-17T14:22:32.943Z,57.38
2023-04-17T14:24:59.737Z,58.48
2023-04-17T14:27:26.481Z,54.41
2023-04-17T14:29:53.209Z,54.36
2023-04-17T14:32:20.007Z,53.56
2023-04-17T14:34:47.177Z,53.50
2023-04-17T14:37:14.729Z,53.13
2023-04-17T14:39:41.744Z,53.29
2023-04-17T14:42:08.892Z,51.07
2023-04-17T14:44:35.878Z,51.08
2023-04-17T14:47:03.179Z,50.82
2023-04-17T14:49:30.658Z,51.84
2023-04-17T14:51:57.524Z,51.30
2023-04-17T14:54:24.304Z,50.20
2023-04-17T14:56:51.176Z,50.82
2023-04-17T14:59:18.277Z,50.49
2023-04-17T15:01:45.450Z,51.66
2023-04-17T15:04:12.516Z,53.34
2023-04-17T15:06:39.588Z,52.98
2023-04-17T15:09:07.337Z,53.45
2023-04-17T15:11:37.402Z,54.16
2023-04-17T15:14:04.575Z,53.39
2023-04-17T15:16:31.532Z,54.35
2023-04-17T15:18:58.457Z,54.10
2023-04-17T15:21:25.268Z,54.43
2023-04-17T15:23:52.167Z,53.67
2023-04-17T15:26:19.341Z,54.53
2023-04-17T15:28:46.333Z,54.55
2023-04-17T15:31:13.567Z,55.14
2023-04-17T15:33:40.322Z,56.74
2023-04-17T15:36:07.192Z,54.12
2023-04-17T15:38:34.100Z,54.99
2023-04-17T15:41:01.137Z,56.06
2023-04-17T15:43:28.183Z,54.87
2023-04-17T15:45:55.072Z,54.13
2023-04-17T15:48:22.130Z,53.58
2023-04-17T15:50:48.903Z,54.37
2023-04-17T15:53:15.901Z,53.53
2023-04-17T15:55:42.923Z,55.41
2023-04-17T15:58:09.921Z,54.43
2023-04-17T16:00:37.498Z,54.12
2023-04-17T16:03:08.013Z,54.79
2023-04-17T16:05:35.118Z,54.97
2023-04-17T16:08:01.959Z,56.26
2023-04-17T16:10:28.824Z,56.78
2023-04-17T16:12:56.003Z,57.16
2023-04-17T16:15:23.302Z,57.46
2023-04-17T16:17:50.917Z,56.92
2023-04-17T16:20:20.551Z,57.53
2023-04-17T16:22:47.525Z,56.87
2023-04-17T16:25:14.939Z,56.07
2023-04-17T16:27:41.882Z,57.66
2023-04-17T16:30:10.559Z,56.96
2023-04-17T16:32:37.705Z,56.54
2023-04-17T16:35:05.030Z,57.32
2023-04-17T16:37:31.790Z,57.16
2023-04-17T16:40:04.666Z,58.13
2023-04-17T16:42:32.618Z,57.93
2023-04-17T16:44:59.613Z,58.74
2023-04-17T16:47:30.240Z,58.14
2023-04-17T16:49:57.207Z,58.77
2023-04-17T16:52:24.019Z,58.82
2023-04-17T16:54:50.938Z,59.40
2023-04-17T16:57:17.691Z,58.90
2023-04-17T16:59:44.788Z,57.98
2023-04-17T17:02:11.899Z,58.14
2023-04-17T17:04:38.757Z,58.22
2023-04-17T17:07:06.628Z,58.04
2023-04-17T17:09:33.658Z,58.87
2023-04-17T17:12:00.863Z,58.78
2023-04-17T17:14:27.806Z,58.56
2023-04-17T17:16:54.956Z,58.14
2023-04-17T17:19:22.020Z,58.13
2023-04-17T17:21:50.174Z,58.00
2023-04-17T17:24:16.957Z,57.94
2023-04-17T17:26:43.953Z,58.54
2023-04-17T17:29:10.834Z,59.83
2023-04-17T17:31:37.764Z,58.66
2023-04-17T17:34:16.799Z,59.04
2023-04-17T17:36:51.388Z,60.18
2023-04-17T17:39:18.139Z,60.37
2023-04-17T17:41:47.204Z,60.70
2023-04-17T17:44:14.956Z,60.93
2023-04-17T17:46:42.084Z,60.79
2023-04-17T17:49:08.815Z,60.62
2023-04-17T17:51:35.864Z,61.13
2023-04-17T17:54:03.138Z,60.68
2023-04-17T17:56:30.157Z,60.80
2023-04-17T17:58:57.210Z,61.40
2023-04-17T18:01:25.241Z,61.30
2023-04-17T18:03:53.570Z,60.73
2023-04-17T18:06:21.002Z,61.10
2023-04-17T18:08:48.202Z,61.68
2023-04-17T18:11:15.333Z,61.21
2023-04-17T18:13:41.987Z,62.27
2023-04-17T18:16:08.777Z,62.57
2023-04-17T18:18:35.674Z,63.03
2023-04-17T18:21:09.823Z,63.02
2023-04-17T18:23:36.779Z,62.90
2023-04-17T18:26:04.523Z,63.67
2023-04-17T18:28:31.342Z,64.45
2023-04-17T18:30:58.277Z,64.90
2023-04-17T18:33:25.157Z,65.04
2023-04-17T18:35:52.176Z,65.76
2023-04-17T18:38:19.154Z,65.80
2023-04-17T18:40:46.017Z,66.19
2023-04-17T18:43:12.871Z,66.15
2023-04-17T18:45:39.850Z,66.10
2023-04-17T18:48:06.808Z,66.36
2023-04-17T18:50:33.647Z,67.59
2023-04-17T18:53:00.653Z,67.67
2023-04-17T18:55:27.873Z,68.74
2023-04-17T18:57:54.568Z,68.80
2023-04-17T19:00:21.380Z,69.38
2023-04-17T19:02:48.350Z,69.92
2023-04-17T19:05:15.477Z,69.03
2023-04-17T19:07:42.210Z,69.36
2023-04-17T19:10:09.542Z,70.89
2023-04-17T19:12:36.613Z,71.10
2023-04-17T19:15:04.241Z,72.99
2023-04-17T19:17:31.134Z,73.98
2023-04-17T19:19:57.930Z,74.24
2023-04-17T19:22:24.755Z,74.71
2023-04-17T19:24:53.159Z,75.53
2023-04-17T19:27:20.113Z,76.22
2023-04-17T19:29:47.620Z,76.16
2023-04-17T19:32:16.814Z,78.71
2023-04-17T19:34:44.404Z,78.63
2023-04-17T19:37:11.189Z,80.22
2023-04-17T19:39:37.885Z,78.95
2023-04-17T19:42:05.048Z,78.52
2023-04-17T19:44:31.872Z,80.34
2023-04-17T19:46:58.888Z,80.30
2023-04-17T19:49:26.073Z,80.06
2023-04-17T19:51:52.831Z,81.06
2023-04-17T19:54:19.768Z,80.88
2023-04-17T19:56:46.451Z,81.55
2023-04-17T19:59:13.765Z,81.26
2023-04-17T20:01:43.433Z,80.98
2023-04-17T20:04:11.144Z,81.13
2023-04-17T20:06:38.101Z,80.93
2023-04-17T20:09:06.507Z,81.38
2023-04-17T20:11:33.285Z,80.89
2023-04-17T20:14:00.271Z,80.89
2023-04-17T20:16:27.444Z,81.43
2023-04-17T20:18:56.811Z,80.75
2023-04-17T20:21:24.076Z,81.13
2023-04-17T20:23:51.065Z,80.80
2023-04-17T20:26:17.901Z,81.44
2023-04-17T20:28:44.651Z,81.83
2023-04-17T20:31:11.445Z,82.24
2023-04-17T20:33:38.215Z,82.32
2023-04-17T20:36:06.000Z,82.51
2023-04-17T20:38:32.703Z,83.34
2023-04-17T20:40:59.442Z,83.29
2023-04-17T20:43:26.224Z,83.11
2023-04-17T20:45:56.276Z,82.97
2023-04-17T20:48:23.800Z,83.68
2023-04-17T20:50:50.744Z,83.49
2023-04-17T20:53:18.046Z,83.51
2023-04-17T20:55:47.200Z,83.24
2023-04-17T20:58:13.900Z,83.52
2023-04-17T21:00:47.585Z,83.37
2023-04-17T21:03:21.137Z,85.06
2023-04-17T21:05:48.104Z,85.52
2023-04-17T21:08:14.837Z,86.24
2023-04-17T21:10:41.547Z,86.16
2023-04-17T21:13:08.333Z,86.78
2023-04-17T21:15:35.022Z,87.10
2023-04-17T21:18:01.713Z,87.33
2023-04-17T21:20:28.533Z,87.70
2023-04-17T21:22:55.275Z,87.18
2023-04-17T21:25:22.318Z,88.70
2023-04-17T21:27:49.374Z,88.54
2023-04-17T21:30:16.211Z,89.42
2023-04-17T21:32:43.049Z,90.21
2023-04-17T21:35:10.395Z,90.06
2023-04-17T21:37:37.354Z,90.08
2023-04-17T21:40:04.516Z,90.47
2023-04-17T21:42:31.329Z,90.45
2023-04-17T21:44:58.174Z,91.03
2023-04-17T21:47:24.991Z,91.34
2023-04-17T21:49:51.763Z,90.82
2023-04-17T21:52:18.586Z,90.60
2023-04-17T21:54:45.270Z,91.33
2023-04-17T21:57:12.026Z,91.32
2023-04-17T21:59:39.059Z,91.87
2023-04-17T22:02:06.052Z,92.62
2023-04-17T22:04:32.905Z,92.16
2023-04-17T22:06:59.591Z,92.96
2023-04-17T22:09:28.882Z,93.52
2023-04-17T22:11:55.934Z,93.70
2023-04-17T22:14:22.661Z,93.66
2023-04-17T22:16:49.525Z,94.57
2023-04-17T22:19:16.272Z,94.82
2023-04-17T22:21:43.245Z,95.47
2023-04-17T22:24:10.019Z,95.64
2023-04-17T22:26:36.979Z,95.13
2023-04-17T22:29:04.007Z,96.16
2023-04-17T22:31:30.911Z,96.84
2023-04-17T22:33:57.936Z,97.67
2023-04-17T22:36:24.679Z,96.59
2023-04-17T22:38:51.412Z,96.55
2023-04-17T22:41:18.123Z,96.78
2023-04-17T22:43:48.663Z,96.68
2023-04-17T22:46:16.541Z,98.11
2023-04-17T22:48:45.377Z,97.78
2023-04-17T22:51:13.220Z,98.24
2023-04-17T22:53:40.050Z,97.94
2023-04-17T22:56:06.990Z,97.31
2023-04-17T22:58:34.339Z,97.39
2023-04-17T23:01:01.086Z,98.17
2023-04-17T23:03:28.173Z,99.15
2023-04-17T23:05:55.033Z,100.00
2023-04-17T23:08:22.243Z,100.00
2023-04-17T23:10:57.031Z,99.84
2023-04-17T23:13:23.926Z,100.00
2023-04-17T23:15:51.322Z,99.76
2023-04-17T23:18:18.222Z,98.84
2023-04-17T23:20:45.004Z,98.66
2023-04-17T23:23:11.763Z,97.22
2023-04-17T23:25:38.602Z,97.52
2023-04-17T23:28:05.419Z,97.68
2023-04-17T23:30:32.194Z,97.55
2023-04-17T23:32:58.895Z,97.69
2023-04-17T23:35:25.707Z,96.25
2023-04-17T23:37:52.389Z,96.07
2023-04-17T23:40:19.065Z,96.57
2023-04-17T23:42:46.181Z,96.47
2023-04-17T23:45:12.940Z,95.53
2023-04-17T23:47:39.709Z,95.42
2023-04-17T23:50:07.785Z,94.94
2023-04-17T23:52:34.477Z,93.90
2023-04-17T23:55:01.951Z,94.22
2023-04-17T23:57:29.756Z,93.97
2023-04-17T23:59:56.448Z,93.75
